Time;durP1;ratioP1;P1;durP2;ratioP2;P2;SDS_P1;SDS_P2;PMS_P1;PMS_P2;Temp;Humidity;BMP_temperature;BMP_pressure;BME280_temperature;BME280_humidity;BME280_pressure;Samples;Min_cycle;Max_cycle;Signal;HPM_P1;HPM_P2
2022/06/09 00:00:53;;;;;;;;;;;12.90;99.90;;;;;;5115173;28;20273;-79
2022/06/09 00:03:28;;;;;;;;;;;12.90;99.90;;;;;;5115878;28;19976;-79
2022/06/09 00:05:54;;;;;;;;;;;12.90;99.90;;;;;;5115782;28;19914;-79
2022/06/09 00:08:20;;;;;;;;;;;12.90;99.90;;;;;;5115874;28;20303;-80
2022/06/09 00:10:51;;;;;;;;;;;12.90;99.90;;;;;;5115117;28;19912;-79
2022/06/09 00:13:17;;;;;;;;;;;12.90;99.90;;;;;;5115782;28;19912;-80
2022/06/09 00:15:43;;;;;;;;;;;12.80;99.90;;;;;;5115309;28;20368;-79
2022/06/09 00:18:08;;;;;;;;;;;12.80;99.90;;;;;;5115406;28;19908;-79
2022/06/09 00:20:34;;;;;;;;;;;12.70;99.90;;;;;;5115036;28;20348;-79
2022/06/09 00:23:00;;;;;;;;;;;12.80;99.90;;;;;;5115678;28;19907;-79
2022/06/09 00:25:25;;;;;;;;;;;12.70;99.90;;;;;;5115870;28;20228;-79
2022/06/09 00:27:51;;;;;;;;;;;12.70;99.90;;;;;;5129607;28;19912;-79
2022/06/09 00:30:17;;;;;;;;;;;12.80;99.90;;;;;;5128078;28;20422;-79
2022/06/09 00:32:43;;;;;;;;;;;12.70;99.90;;;;;;5115598;28;19912;-80
2022/06/09 00:35:09;;;;;;;;;;;12.70;99.90;;;;;;5115356;28;19994;-80
2022/06/09 00:37:35;;;;;;;;;;;12.70;99.90;;;;;;5114909;28;19908;-79
2022/06/09 00:40:01;;;;;;;;;;;12.70;99.90;;;;;;5114948;28;19998;-80
2022/06/09 00:42:27;;;;;;;;;;;12.60;99.90;;;;;;5115239;28;20319;-79
2022/06/09 00:44:52;;;;;;;;;;;12.60;99.90;;;;;;5114565;28;19969;-80
2022/06/09 00:47:26;;;;;;;;;;;12.60;99.90;;;;;;5115090;28;19965;-80
2022/06/09 00:49:57;;;;;;;;;;;12.60;99.90;;;;;;5114299;28;20428;-80
2022/06/09 00:52:24;;;;;;;;;;;12.50;99.90;;;;;;5115164;28;20158;-80
2022/06/09 00:54:52;;;;;;;;;;;12.50;99.90;;;;;;5114567;28;19952;-80
2022/06/09 00:57:21;;;;;;;;;;;12.50;99.90;;;;;;5115307;28;19914;-79
2022/06/09 00:59:48;;;;;;;;;;;12.50;99.90;;;;;;5113687;28;19908;-79
2022/06/09 01:02:17;;;;;;;;;;;12.60;99.90;;;;;;5114699;28;19999;-79
2022/06/09 01:04:43;;;;;;;;;;;12.60;99.90;;;;;;5114026;28;19936;-79
2022/06/09 01:07:11;;;;;;;;;;;12.50;99.90;;;;;;5114892;28;19919;-80
2022/06/09 01:09:37;;;;;;;;;;;12.60;99.90;;;;;;5114209;28;19958;-79
2022/06/09 01:12:20;;;;;;;;;;;12.60;99.90;;;;;;5114709;28;19954;-79
2022/06/09 01:14:46;;;;;;;;;;;12.60;99.90;;;;;;5114197;28;19908;-79
2022/06/09 01:17:25;;;;;;;;;;;12.60;99.90;;;;;;5114185;28;19908;-80
2022/06/09 01:20:01;;;;;;;;;;;12.60;99.90;;;;;;5113929;28;19944;-79
2022/06/09 01:22:45;;;;;;;;;;;12.60;99.90;;;;;;5114248;28;20378;-79
2022/06/09 01:25:10;;;;;;;;;;;12.60;99.90;;;;;;5114646;28;19912;-80
2022/06/09 01:27:39;;;;;;;;;;;12.60;99.90;;;;;;5113956;28;19912;-79
2022/06/09 01:30:14;;;;;;;;;;;12.60;99.90;;;;;;5114220;28;19931;-80
2022/06/09 01:32:43;;;;;;;;;;;12.60;99.90;;;;;;5113901;28;19950;-79
2022/06/09 01:35:11;;;;;;;;;;;12.60;99.90;;;;;;5114145;28;20284;-80
2022/06/09 01:37:39;;;;;;;;;;;12.60;99.90;;;;;;5113817;28;19914;-79
2022/06/09 01:40:06;;;;;;;;;;;12.70;99.90;;;;;;5114435;28;20319;-79
2022/06/09 01:42:34;;;;;;;;;;;12.60;99.90;;;;;;5113763;28;20284;-79
2022/06/09 01:45:06;;;;;;;;;;;12.60;99.90;;;;;;5113894;28;19966;-79
2022/06/09 01:47:41;;;;;;;;;;;12.60;99.90;;;;;;5113856;28;19957;-80
2022/06/09 01:50:09;;;;;;;;;;;12.60;99.90;;;;;;5113915;28;20249;-79
2022/06/09 01:52:36;;;;;;;;;;;12.60;99.90;;;;;;5113048;28;19908;-77
2022/06/09 01:55:03;;;;;;;;;;;12.60;99.90;;;;;;5114109;28;19908;-79
2022/06/09 01:57:31;;;;;;;;;;;12.60;99.90;;;;;;5113675;28;19908;-78
2022/06/09 02:00:01;;;;;;;;;;;12.60;99.90;;;;;;5113389;28;19954;-79
2022/06/09 02:02:28;;;;;;;;;;;12.60;99.90;;;;;;5113968;28;20083;-79
2022/06/09 02:04:59;;;;;;;;;;;12.60;99.90;;;;;;5113303;28;19919;-80
2022/06/09 02:07:26;;;;;;;;;;;12.60;99.90;;;;;;5113806;28;19923;-80
2022/06/09 02:09:52;;;;;;;;;;;12.60;99.90;;;;;;5112979;28;19915;-79
2022/06/09 02:12:22;;;;;;;;;;;12.50;99.90;;;;;;5113941;28;19917;-79
2022/06/09 02:14:50;;;;;;;;;;;12.50;99.90;;;;;;5113491;28;19908;-79
2022/06/09 02:17:16;;;;;;;;;;;12.50;99.90;;;;;;5113583;28;19908;-79
2022/06/09 02:19:42;;;;;;;;;;;12.50;99.90;;;;;;5112654;28;20360;-79
2022/06/09 02:22:08;;;;;;;;;;;12.50;99.90;;;;;;5113767;28;19957;-79
2022/06/09 02:24:34;;;;;;;;;;;12.50;99.90;;;;;;5113548;28;19911;-80
2022/06/09 02:26:59;;;;;;;;;;;12.50;99.90;;;;;;5113022;28;19964;-79
2022/06/09 02:29:25;;;;;;;;;;;12.50;99.90;;;;;;5113234;28;20007;-79
2022/06/09 02:31:51;;;;;;;;;;;12.50;99.90;;;;;;5113024;28;19939;-79
2022/06/09 02:34:17;;;;;;;;;;;12.50;99.90;;;;;;5113484;28;20422;-79
2022/06/09 02:36:43;;;;;;;;;;;12.50;99.90;;;;;;5113040;28;19915;-79
2022/06/09 02:39:09;;;;;;;;;;;12.50;99.90;;;;;;5113459;28;19908;-79
2022/06/09 02:41:34;;;;;;;;;;;12.50;99.90;;;;;;5113425;28;20349;-79
2022/06/09 02:44:00;;;;;;;;;;;12.50;99.90;;;;;;5112915;28;19907;-79
2022/06/09 02:46:25;;;;;;;;;;;12.50;99.90;;;;;;5113294;28;19980;-79
2022/06/09 02:48:53;;;;;;;;;;;12.50;99.90;;;;;;5112695;28;19911;-79
2022/06/09 02:51:29;;;;;;;;;;;12.50;99.90;;;;;;5113322;28;19908;-79
2022/06/09 02:53:55;;;;;;;;;;;12.50;99.90;;;;;;5112832;28;19907;-79
2022/06/09 02:56:21;;;;;;;;;;;12.50;99.90;;;;;;5113284;28;19912;-79
2022/06/09 02:58:47;;;;;;;;;;;12.50;99.90;;;;;;5112877;28;20234;-79
2022/06/09 03:01:13;;;;;;;;;;;12.50;99.90;;;;;;5113080;28;20425;-79
2022/06/09 03:03:38;;;;;;;;;;;12.50;99.90;;;;;;5113268;28;19908;-79
2022/06/09 03:06:04;;;;;;;;;;;12.50;99.90;;;;;;5113174;28;20351;-79
2022/06/09 03:08:30;;;;;;;;;;;12.60;99.90;;;;;;5113217;28;19935;-79
2022/06/09 03:10:56;;;;;;;;;;;12.60;99.90;;;;;;5112752;28;19958;-79
2022/06/09 03:13:21;;;;;;;;;;;12.60;99.90;;;;;;5113133;28;20344;-79
2022/06/09 03:15:47;;;;;;;;;;;12.70;99.90;;;;;;5113035;28;19915;-79
2022/06/09 03:18:22;;;;;;;;;;;12.70;99.90;;;;;;5113039;28;20002;-79
2022/06/09 03:20:48;;;;;;;;;;;12.70;99.90;;;;;;5112676;28;20357;-79
2022/06/09 03:23:14;;;;;;;;;;;12.80;99.90;;;;;;5114833;28;19919;-79
2022/06/09 03:25:41;;;;;;;;;;;12.80;99.90;;;;;;5116629;28;20429;-80
2022/06/09 03:28:07;;;;;;;;;;;12.80;99.90;;;;;;5116540;28;20292;-79
2022/06/09 03:30:33;;;;;;;;;;;12.80;99.90;;;;;;5116643;28;19912;-80
2022/06/09 03:32:58;;;;;;;;;;;12.80;99.90;;;;;;5116114;28;19908;-79
2022/06/09 03:35:24;;;;;;;;;;;12.80;99.90;;;;;;5116538;28;19912;-79
2022/06/09 03:37:49;;;;;;;;;;;12.80;99.90;;;;;;5116050;28;19907;-79
2022/06/09 03:40:16;;;;;;;;;;;12.80;99.90;;;;;;5116441;28;19908;-79
2022/06/09 03:42:41;;;;;;;;;;;12.80;99.90;;;;;;5116005;28;19911;-77
2022/06/09 03:45:07;;;;;;;;;;;12.80;99.90;;;;;;5116232;28;19958;-79
2022/06/09 03:47:33;;;;;;;;;;;12.90;99.90;;;;;;5115958;28;20014;-80
2022/06/09 03:49:59;;;;;;;;;;;12.90;99.90;;;;;;5115893;28;19962;-80
2022/06/09 03:52:24;;;;;;;;;;;12.90;99.90;;;;;;5115990;28;19912;-80
2022/06/09 03:54:50;;;;;;;;;;;12.90;99.90;;;;;;5115787;28;20348;-79
2022/06/09 03:57:15;;;;;;;;;;;12.90;99.90;;;;;;5116009;28;19961;-80
2022/06/09 03:59:41;;;;;;;;;;;12.90;99.90;;;;;;5116167;28;19915;-79
2022/06/09 04:02:06;;;;;;;;;;;12.90;99.90;;;;;;5115615;28;20003;-79
2022/06/09 04:04:32;;;;;;;;;;;13.00;99.90;;;;;;5115923;28;19918;-79
2022/06/09 04:06:58;;;;;;;;;;;13.00;99.90;;;;;;5115224;28;19954;-79
2022/06/09 04:09:24;;;;;;;;;;;13.10;99.90;;;;;;5115891;28;19907;-79
2022/06/09 04:11:49;;;;;;;;;;;13.00;99.90;;;;;;5115762;28;20026;-79
2022/06/09 04:14:15;;;;;;;;;;;13.00;99.90;;;;;;5116084;28;20002;-80
2022/06/09 04:16:44;;;;;;;;;;;13.00;99.90;;;;;;5115794;28;19974;-79
2022/06/09 04:19:11;;;;;;;;;;;13.00;99.90;;;;;;5115670;28;19908;-80
2022/06/09 04:21:37;;;;;;;;;;;13.10;99.90;;;;;;5115268;28;19926;-79
2022/06/09 04:24:03;;;;;;;;;;;13.10;99.90;;;;;;5115165;28;19931;-79
2022/06/09 04:26:30;;;;;;;;;;;13.10;99.90;;;;;;5115491;28;20264;-79
2022/06/09 04:28:56;;;;;;;;;;;13.20;99.90;;;;;;5114678;28;20376;-79
2022/06/09 04:31:22;;;;;;;;;;;13.20;99.90;;;;;;5115516;28;19953;-79
2022/06/09 04:33:48;;;;;;;;;;;13.20;99.90;;;;;;5114185;28;19908;-79
2022/06/09 04:36:15;;;;;;;;;;;13.20;99.90;;;;;;5115015;28;19968;-79
2022/06/09 04:38:40;;;;;;;;;;;13.20;99.90;;;;;;5115127;28;20364;-79
2022/06/09 04:41:09;;;;;;;;;;;13.20;99.90;;;;;;5114721;28;19953;-79
2022/06/09 04:43:36;;;;;;;;;;;13.30;99.90;;;;;;5115142;28;19922;-79
2022/06/09 04:46:01;;;;;;;;;;;13.30;99.90;;;;;;5114690;28;19935;-79
2022/06/09 04:48:27;;;;;;;;;;;13.30;99.90;;;;;;5115112;28;20330;-79
2022/06/09 04:50:52;;;;;;;;;;;13.40;99.90;;;;;;5114671;28;19912;-78
2022/06/09 04:53:18;;;;;;;;;;;13.50;99.90;;;;;;5096667;28;19922;-79
2022/06/09 04:55:44;;;;;;;;;;;13.50;99.90;;;;;;5114999;28;19960;-79
2022/06/09 04:58:09;;;;;;;;;;;13.70;99.90;;;;;;5114451;28;19989;-79
2022/06/09 05:00:35;;;;;;;;;;;13.70;99.90;;;;;;5114766;28;19931;-79
2022/06/09 05:03:01;;;;;;;;;;;13.80;99.90;;;;;;5114357;28;19993;-79
2022/06/09 05:05:29;;;;;;;;;;;13.90;99.90;;;;;;5114873;28;19965;-79
2022/06/09 05:07:55;;;;;;;;;;;14.00;99.90;;;;;;5113937;28;19911;-79
2022/06/09 05:10:20;;;;;;;;;;;14.00;99.90;;;;;;5114911;28;19908;-79
2022/06/09 05:12:46;;;;;;;;;;;14.00;99.90;;;;;;5114482;28;20272;-79
2022/06/09 05:15:13;;;;;;;;;;;14.10;99.90;;;;;;5114284;28;19907;-79
2022/06/09 05:17:39;;;;;;;;;;;14.10;99.90;;;;;;5114469;28;19914;-79
2022/06/09 05:20:05;;;;;;;;;;;14.10;99.90;;;;;;5113893;28;19919;-79
2022/06/09 05:22:30;;;;;;;;;;;14.10;99.90;;;;;;5114316;28;19998;-79
2022/06/09 05:24:59;;;;;;;;;;;14.10;99.90;;;;;;5113675;28;19919;-78
2022/06/09 05:27:25;;;;;;;;;;;14.10;99.90;;;;;;5114354;28;20028;-79
2022/06/09 05:29:50;;;;;;;;;;;14.10;99.90;;;;;;5113640;28;19914;-78
2022/06/09 05:32:16;;;;;;;;;;;14.00;99.90;;;;;;5114201;28;19907;-78
2022/06/09 05:34:42;;;;;;;;;;;14.00;99.90;;;;;;5114093;28;19908;-79
2022/06/09 05:37:07;;;;;;;;;;;14.00;99.90;;;;;;5113699;28;19915;-79
2022/06/09 05:45:03;;;;;;;;;;;14.00;99.90;;;;;;5113289;28;19918;-79
2022/06/09 05:47:28;;;;;;;;;;;14.00;99.90;;;;;;5115176;28;19918;-79
2022/06/09 05:49:54;;;;;;;;;;;13.90;99.90;;;;;;5114020;28;19908;-78
2022/06/09 05:52:22;;;;;;;;;;;13.80;99.90;;;;;;5113685;28;19908;-80
2022/06/09 05:54:49;;;;;;;;;;;13.70;99.90;;;;;;5113959;28;19908;-81
2022/06/09 05:57:14;;;;;;;;;;;13.60;99.90;;;;;;5113468;28;19952;-80
2022/06/09 05:59:40;;;;;;;;;;;13.50;99.90;;;;;;5113675;28;19908;-80
2022/06/09 06:02:06;;;;;;;;;;;13.50;99.90;;;;;;5113367;28;20333;-80
2022/06/09 06:04:32;;;;;;;;;;;13.40;99.90;;;;;;5113543;28;19914;-80
2022/06/09 06:06:57;;;;;;;;;;;13.40;99.90;;;;;;5113300;28;20006;-79
2022/06/09 06:09:23;;;;;;;;;;;13.30;99.90;;;;;;5095426;28;19912;-80
2022/06/09 06:11:49;;;;;;;;;;;13.30;99.90;;;;;;5113780;28;19933;-80
2022/06/09 06:14:16;;;;;;;;;;;13.20;99.90;;;;;;5113205;28;19908;-80
2022/06/09 06:16:41;;;;;;;;;;;13.20;99.90;;;;;;5113612;28;20349;-81
2022/06/09 06:19:08;;;;;;;;;;;13.20;99.90;;;;;;5113104;28;19915;-84
2022/06/09 06:21:34;;;;;;;;;;;13.10;99.90;;;;;;5113854;28;19977;-82
2022/06/09 06:24:00;;;;;;;;;;;13.10;99.90;;;;;;5113163;28;19957;-82
2022/06/09 06:26:25;;;;;;;;;;;13.10;99.90;;;;;;5113541;28;19966;-83
2022/06/09 06:28:51;;;;;;;;;;;13.10;99.90;;;;;;5113606;28;20334;-83
2022/06/09 06:31:16;;;;;;;;;;;13.10;99.90;;;;;;5113325;28;19914;-82
2022/06/09 06:33:42;;;;;;;;;;;13.10;99.90;;;;;;5120887;28;19978;-82
2022/06/09 06:36:09;;;;;;;;;;;13.10;99.90;;;;;;5115035;28;19937;-82
2022/06/09 06:38:36;;;;;;;;;;;13.10;99.90;;;;;;5113516;28;19908;-84
2022/06/09 06:41:03;;;;;;;;;;;13.10;99.90;;;;;;5113000;28;19987;-85
2022/06/09 06:43:29;;;;;;;;;;;13.10;99.90;;;;;;5113318;28;20014;-82
2022/06/09 06:45:54;;;;;;;;;;;13.10;99.90;;;;;;5112817;28;20007;-83
2022/06/09 06:48:20;;;;;;;;;;;13.20;99.90;;;;;;5113498;28;19942;-85
2022/06/09 06:50:45;;;;;;;;;;;13.10;99.90;;;;;;5113311;28;19908;-85
2022/06/09 06:53:12;;;;;;;;;;;13.20;99.90;;;;;;5112976;28;19908;-82
2022/06/09 06:55:38;;;;;;;;;;;13.20;99.90;;;;;;5113016;28;20249;-85
2022/06/09 06:58:03;;;;;;;;;;;13.20;99.90;;;;;;5114557;28;19911;-84
2022/06/09 07:00:29;;;;;;;;;;;13.20;99.90;;;;;;5117275;28;19914;-84
2022/06/09 07:02:55;;;;;;;;;;;13.30;99.90;;;;;;5116697;28;20314;-83
2022/06/09 07:05:21;;;;;;;;;;;13.30;99.90;;;;;;5117199;28;19987;-82
2022/06/09 07:07:46;;;;;;;;;;;13.30;99.90;;;;;;5117050;28;19915;-82
2022/06/09 07:10:13;;;;;;;;;;;13.30;99.90;;;;;;5118949;28;20277;-82
2022/06/09 07:12:39;;;;;;;;;;;13.30;99.90;;;;;;5117707;28;19908;-82
2022/06/09 07:15:05;;;;;;;;;;;13.40;99.90;;;;;;5116511;28;20009;-82
2022/06/09 07:17:31;;;;;;;;;;;13.40;99.90;;;;;;5121862;28;20362;-81
2022/06/09 07:19:56;;;;;;;;;;;13.40;99.90;;;;;;5123569;28;19971;-80
2022/06/09 07:22:22;;;;;;;;;;;13.50;99.90;;;;;;5120666;28;20297;-82
2022/06/09 07:24:48;;;;;;;;;;;13.50;99.90;;;;;;5116844;28;19958;-81
2022/06/09 07:27:14;;;;;;;;;;;13.50;99.90;;;;;;5116246;28;20007;-80
2022/06/09 07:29:40;;;;;;;;;;;13.50;99.90;;;;;;5116620;28;19908;-81
2022/06/09 07:32:06;;;;;;;;;;;13.50;99.90;;;;;;5116169;28;19945;-81
2022/06/09 07:34:32;;;;;;;;;;;13.40;99.90;;;;;;5116406;28;19915;-82
2022/06/09 07:36:58;;;;;;;;;;;13.40;99.90;;;;;;5116066;28;19908;-83
2022/06/09 07:39:24;;;;;;;;;;;13.40;99.90;;;;;;5116616;28;20003;-83
2022/06/09 07:41:50;;;;;;;;;;;13.50;99.90;;;;;;5116549;28;19908;-84
2022/06/09 07:44:15;;;;;;;;;;;13.50;99.90;;;;;;5115609;28;20223;-82
2022/06/09 07:46:41;;;;;;;;;;;13.50;99.90;;;;;;5116046;28;19923;-82
2022/06/09 07:49:07;;;;;;;;;;;13.60;99.90;;;;;;5115883;28;19977;-81
2022/06/09 07:51:33;;;;;;;;;;;13.60;99.90;;;;;;5116071;28;20018;-81
2022/06/09 07:53:58;;;;;;;;;;;13.60;99.90;;;;;;5115886;28;19950;-80
2022/06/09 07:56:24;;;;;;;;;;;13.60;99.90;;;;;;5116162;28;19911;-81
2022/06/09 07:58:49;;;;;;;;;;;13.70;99.90;;;;;;5116161;28;20015;-81
2022/06/09 08:01:17;;;;;;;;;;;13.80;99.90;;;;;;5115577;28;19907;-82
2022/06/09 08:03:42;;;;;;;;;;;13.90;99.90;;;;;;5115771;28;19953;-81
2022/06/09 08:06:09;;;;;;;;;;;13.80;99.90;;;;;;5115473;28;19912;-81
2022/06/09 08:08:35;;;;;;;;;;;13.90;99.90;;;;;;5115478;28;19915;-81
2022/06/09 08:11:00;;;;;;;;;;;13.90;99.90;;;;;;5115332;28;20006;-81
2022/06/09 08:13:26;;;;;;;;;;;13.80;99.90;;;;;;5126636;28;19935;-82
2022/06/09 08:15:53;;;;;;;;;;;13.70;99.90;;;;;;5134262;28;19975;-81
2022/06/09 08:18:18;;;;;;;;;;;13.60;99.90;;;;;;5115760;28;19918;-82
2022/06/09 08:20:44;;;;;;;;;;;13.60;99.90;;;;;;5115460;28;19920;-82
2022/06/09 08:23:11;;;;;;;;;;;13.60;99.90;;;;;;5114954;28;19915;-82
2022/06/09 08:25:38;;;;;;;;;;;13.60;99.90;;;;;;5115112;28;20242;-82
2022/06/09 08:28:04;;;;;;;;;;;13.60;99.90;;;;;;5114838;28;19961;-82
2022/06/09 08:30:31;;;;;;;;;;;13.60;99.90;;;;;;5115336;28;19908;-82
2022/06/09 08:32:57;;;;;;;;;;;13.60;99.90;;;;;;5114771;28;20340;-81
2022/06/09 08:35:23;;;;;;;;;;;13.50;99.90;;;;;;5114648;28;19911;-81
2022/06/09 08:37:50;;;;;;;;;;;13.50;99.90;;;;;;5115209;28;19912;-80
2022/06/09 08:40:19;;;;;;;;;;;13.60;99.90;;;;;;5114677;28;19931;-80
2022/06/09 08:43:03;;;;;;;;;;;13.70;99.90;;;;;;5115009;28;19908;-79
2022/06/09 08:45:32;;;;;;;;;;;13.80;99.90;;;;;;5114869;28;19929;-79
2022/06/09 08:47:59;;;;;;;;;;;13.90;99.90;;;;;;5114921;28;19912;-79
2022/06/09 08:50:24;;;;;;;;;;;14.00;99.90;;;;;;5114320;28;19912;-79
2022/06/09 08:52:50;;;;;;;;;;;14.10;99.90;;;;;;5115139;28;20265;-79
2022/06/09 08:55:18;;;;;;;;;;;14.10;99.90;;;;;;5114414;28;20349;-79
2022/06/09 08:57:45;;;;;;;;;;;14.10;99.90;;;;;;5114799;28;19908;-80
2022/06/09 09:00:13;;;;;;;;;;;14.20;99.90;;;;;;5114256;28;19915;-81
2022/06/09 09:02:45;;;;;;;;;;;14.30;99.90;;;;;;5114656;28;19954;-82
2022/06/09 09:05:16;;;;;;;;;;;14.40;99.90;;;;;;5114087;28;19912;-84
2022/06/09 09:07:49;;;;;;;;;;;14.50;99.90;;;;;;5114696;28;19912;-82
2022/06/09 09:10:20;;;;;;;;;;;14.50;99.90;;;;;;5114137;28;19912;-82
2022/06/09 09:12:58;;;;;;;;;;;14.60;99.90;;;;;;5114481;28;19951;-82
2022/06/09 09:15:26;;;;;;;;;;;14.70;99.90;;;;;;5114042;28;19916;-81
2022/06/09 09:18:11;;;;;;;;;;;14.90;99.90;;;;;;5114157;28;19908;-81
2022/06/09 09:20:43;;;;;;;;;;;15.00;99.90;;;;;;5113820;28;19965;-79
2022/06/09 09:23:17;;;;;;;;;;;14.90;99.90;;;;;;5114046;28;20269;-79
2022/06/09 09:25:46;;;;;;;;;;;14.90;99.90;;;;;;5114123;28;20010;-78
2022/06/09 09:28:11;;;;;;;;;;;14.70;99.90;;;;;;5113819;28;19919;-78
2022/06/09 09:30:40;;;;;;;;;;;14.90;99.90;;;;;;5113851;28;20357;-80
2022/06/09 09:33:12;;;;;;;;;;;15.00;99.90;;;;;;5113705;28;19998;-77
2022/06/09 09:35:40;;;;;;;;;;;15.00;99.90;;;;;;5113984;28;19907;-78
2022/06/09 09:38:06;;;;;;;;;;;15.10;99.90;;;;;;5113883;28;20010;-77
2022/06/09 09:40:33;;;;;;;;;;;15.20;99.90;;;;;;5113885;28;20321;-78
2022/06/09 09:43:00;;;;;;;;;;;15.30;99.90;;;;;;5113977;28;19907;-80
2022/06/09 09:45:45;;;;;;;;;;;15.30;99.90;;;;;;5113338;28;19918;-79
2022/06/09 09:48:16;;;;;;;;;;;15.40;99.90;;;;;;5113298;28;19912;-79
2022/06/09 09:50:54;;;;;;;;;;;15.50;99.90;;;;;;5113555;28;20453;-80
2022/06/09 09:53:19;;;;;;;;;;;15.30;99.90;;;;;;5113403;28;19907;-79
2022/06/09 09:55:56;;;;;;;;;;;15.30;99.90;;;;;;5113908;28;20298;-78
2022/06/09 09:58:28;;;;;;;;;;;15.40;99.90;;;;;;5113018;28;19908;-79
2022/06/09 10:01:17;;;;;;;;;;;15.40;99.90;;;;;;5113778;28;19964;-79
2022/06/09 10:09:37;;;;;;;;;;;15.30;99.90;;;;;;5113588;28;20380;-79
2022/06/09 10:12:07;;;;;;;;;;;15.30;99.90;;;;;;5113386;28;19938;-79
2022/06/09 10:14:38;;;;;;;;;;;15.20;99.90;;;;;;5113490;28;19940;-80
2022/06/09 10:17:19;;;;;;;;;;;15.30;99.90;;;;;;5113492;28;19908;-79
2022/06/09 10:19:49;;;;;;;;;;;15.30;99.90;;;;;;5113604;28;19971;-79
2022/06/09 10:22:19;;;;;;;;;;;15.30;99.90;;;;;;5112965;28;20257;-79
2022/06/09 10:24:57;;;;;;;;;;;15.40;99.90;;;;;;5113416;28;19908;-79
2022/06/09 10:27:26;;;;;;;;;;;15.40;99.90;;;;;;5112998;28;19915;-80
2022/06/09 10:29:54;;;;;;;;;;;15.50;99.90;;;;;;5113604;28;19908;-80
2022/06/09 10:32:24;;;;;;;;;;;15.60;99.90;;;;;;5114182;28;19908;-80
2022/06/09 10:35:06;;;;;;;;;;;15.70;99.90;;;;;;5117910;28;20277;-80
2022/06/09 10:37:43;;;;;;;;;;;15.90;99.90;;;;;;5117487;28;20252;-80
2022/06/09 10:40:15;;;;;;;;;;;16.00;99.90;;;;;;5116918;28;19908;-80
2022/06/09 10:42:40;;;;;;;;;;;16.10;99.90;;;;;;5117671;28;19914;-79
2022/06/09 10:45:17;;;;;;;;;;;16.20;99.90;;;;;;5117460;28;19911;-79
2022/06/09 10:56:21;;;;;;;;;;;17.10;99.90;;;;;;5116815;28;20284;-80
2022/06/09 10:58:53;;;;;;;;;;;17.70;99.90;;;;;;5117394;28;19961;-77
2022/06/09 11:01:26;;;;;;;;;;;18.10;99.90;;;;;;5116855;28;19953;-77
2022/06/09 11:03:52;;;;;;;;;;;18.30;99.90;;;;;;5117392;28;19914;-81
2022/06/09 11:06:25;;;;;;;;;;;18.60;99.90;;;;;;5116649;28;20292;-77
2022/06/09 11:08:54;;;;;;;;;;;18.80;99.90;;;;;;5117183;28;19912;-77
2022/06/09 11:11:39;;;;;;;;;;;19.10;99.90;;;;;;5116326;28;20014;-79
2022/06/09 11:14:15;;;;;;;;;;;19.20;99.90;;;;;;5116964;28;19911;-80
2022/06/09 11:16:59;;;;;;;;;;;19.40;99.90;;;;;;5116572;28;20284;-79
2022/06/09 11:19:44;;;;;;;;;;;19.50;99.90;;;;;;5116252;28;19998;-79
2022/06/09 11:22:23;;;;;;;;;;;19.50;99.90;;;;;;5119926;28;19953;-76
2022/06/09 11:25:04;;;;;;;;;;;19.50;99.90;;;;;;5135695;28;19912;-78
2022/06/09 11:27:48;;;;;;;;;;;19.50;99.90;;;;;;5120527;28;20136;-79
2022/06/09 11:30:34;;;;;;;;;;;19.40;99.90;;;;;;5117783;28;20006;-79
2022/06/09 11:32:59;;;;;;;;;;;19.50;99.90;;;;;;5116171;28;19908;-79
2022/06/09 11:35:25;;;;;;;;;;;19.80;99.90;;;;;;5116131;28;19931;-80
2022/06/09 11:37:53;;;;;;;;;;;20.00;99.90;;;;;;5116607;28;20260;-79
2022/06/09 11:40:19;;;;;;;;;;;20.00;99.90;;;;;;5116080;28;19915;-79
2022/06/09 11:42:58;;;;;;;;;;;20.10;99.90;;;;;;5116292;28;19907;-80
2022/06/09 11:45:33;;;;;;;;;;;20.20;99.90;;;;;;5097441;28;19961;-79
2022/06/09 11:48:01;;;;;;;;;;;20.10;99.90;;;;;;5116459;28;19912;-79
2022/06/09 11:50:38;;;;;;;;;;;20.10;99.90;;;;;;5115780;28;19908;-80
2022/06/09 11:53:04;;;;;;;;;;;20.20;99.90;;;;;;5116317;28;20356;-79
2022/06/09 11:58:34;;;;;;;;;;;20.30;99.90;;;;;;5115913;28;19915;-79
2022/06/09 12:01:15;;;;;;;;;;;20.40;99.90;;;;;;5116032;28;19908;-79
2022/06/09 12:03:44;;;;;;;;;;;20.40;99.90;;;;;;5115943;28;19961;-80
2022/06/09 12:06:32;;;;;;;;;;;20.50;99.90;;;;;;5115811;28;19912;-80
2022/06/09 12:09:13;;;;;;;;;;;20.50;99.90;;;;;;5114766;28;20280;-79
2022/06/09 12:12:04;;;;;;;;;;;20.60;99.90;;;;;;5115855;28;19915;-80
2022/06/09 12:14:32;;;;;;;;;;;20.60;99.90;;;;;;5110695;28;19915;-79
2022/06/09 12:17:05;;;;;;;;;;;20.60;99.90;;;;;;5115673;28;19907;-79
2022/06/09 12:19:51;;;;;;;;;;;20.70;99.90;;;;;;5096745;28;20254;-79
2022/06/09 12:22:35;;;;;;;;;;;20.80;99.90;;;;;;5115176;28;19955;-79
2022/06/09 12:25:14;;;;;;;;;;;20.80;99.90;;;;;;5115233;28;19912;-79
2022/06/09 12:27:48;;;;;;;;;;;20.90;99.90;;;;;;5115584;28;20010;-79
2022/06/09 12:30:37;;;;;;;;;;;20.90;99.90;;;;;;5114993;28;19908;-78
2022/06/09 12:33:16;;;;;;;;;;;20.90;99.90;;;;;;5115476;28;19957;-79
2022/06/09 12:35:52;;;;;;;;;;;20.80;99.90;;;;;;5115206;28;19908;-79
2022/06/09 12:38:27;;;;;;;;;;;21.00;99.90;;;;;;5114835;28;19930;-79
2022/06/09 12:40:54;;;;;;;;;;;21.30;99.90;;;;;;5115295;28;19953;-79
2022/06/09 12:43:23;;;;;;;;;;;21.40;99.90;;;;;;5114498;28;19943;-78
2022/06/09 12:46:03;;;;;;;;;;;21.50;99.90;;;;;;5115145;28;19912;-80
2022/06/09 12:48:29;;;;;;;;;;;21.50;99.90;;;;;;5114731;28;19956;-79
2022/06/09 12:50:55;;;;;;;;;;;21.60;99.90;;;;;;5115079;28;19918;-79
2022/06/09 12:53:26;;;;;;;;;;;21.60;99.90;;;;;;5114573;28;19995;-79
2022/06/09 12:55:53;;;;;;;;;;;21.50;99.90;;;;;;5114112;28;19915;-79
2022/06/09 12:58:22;;;;;;;;;;;21.50;99.90;;;;;;5114105;28;19930;-78
2022/06/09 13:00:51;;;;;;;;;;;21.60;99.90;;;;;;5114851;28;19908;-80
2022/06/09 13:03:34;;;;;;;;;;;21.70;99.90;;;;;;5114344;28;19908;-78
2022/06/09 13:06:10;;;;;;;;;;;21.90;99.90;;;;;;5114608;28;20317;-79
2022/06/09 13:08:42;;;;;;;;;;;21.70;99.90;;;;;;5114167;28;20436;-79
2022/06/09 13:11:14;;;;;;;;;;;21.70;99.90;;;;;;5114544;28;19908;-79
2022/06/09 13:13:41;;;;;;;;;;;21.40;99.90;;;;;;5114215;28;19907;-79
2022/06/09 13:16:11;;;;;;;;;;;21.20;99.90;;;;;;5114439;28;20341;-79
2022/06/09 13:18:39;;;;;;;;;;;20.90;99.90;;;;;;5114044;28;19911;-79
2022/06/09 13:21:11;;;;;;;;;;;20.70;99.90;;;;;;5114485;28;19927;-79
2022/06/09 13:23:37;;;;;;;;;;;20.50;99.90;;;;;;5113924;28;20314;-81
2022/06/09 13:26:05;;;;;;;;;;;20.50;99.90;;;;;;5114304;28;20025;-82
2022/06/09 13:28:30;;;;;;;;;;;20.60;99.90;;;;;;5113802;28;19919;-81
2022/06/09 13:30:57;;;;;;;;;;;20.70;99.90;;;;;;5114283;28;19908;-81
2022/06/09 13:33:23;;;;;;;;;;;20.60;99.90;;;;;;5113744;28;19908;-80
2022/06/09 13:35:51;;;;;;;;;;;20.70;99.90;;;;;;5113839;28;20379;-80
2022/06/09 13:38:26;;;;;;;;;;;20.80;99.90;;;;;;5114120;28;19908;-80
2022/06/09 13:40:53;;;;;;;;;;;20.90;99.90;;;;;;5114030;28;19908;-79
2022/06/09 13:43:25;;;;;;;;;;;21.00;99.90;;;;;;5113632;28;19908;-79
2022/06/09 13:45:54;;;;;;;;;;;21.00;99.90;;;;;;5113863;28;19959;-81
2022/06/09 13:48:22;;;;;;;;;;;21.10;99.90;;;;;;5113238;28;19916;-79
2022/06/09 13:51:07;;;;;;;;;;;21.00;99.90;;;;;;5113909;28;20351;-79
2022/06/09 13:53:44;;;;;;;;;;;20.90;99.90;;;;;;5113392;28;19978;-80
2022/06/09 13:56:10;;;;;;;;;;;21.10;99.90;;;;;;5113855;28;20279;-79
2022/06/09 13:58:35;;;;;;;;;;;21.10;99.90;;;;;;5113370;28;19908;-80
2022/06/09 14:01:02;;;;;;;;;;;21.30;99.90;;;;;;5095544;28;19957;-80
2022/06/09 14:03:29;;;;;;;;;;;21.30;99.90;;;;;;5113623;28;20003;-80
2022/06/09 14:06:00;;;;;;;;;;;21.40;99.90;;;;;;5113610;28;20018;-79
2022/06/09 14:08:26;;;;;;;;;;;21.40;99.90;;;;;;5113232;28;19912;-80
2022/06/09 14:10:52;;;;;;;;;;;21.60;99.90;;;;;;5113620;28;19908;-80
2022/06/09 14:13:18;;;;;;;;;;;21.70;99.90;;;;;;5113731;28;19976;-81
2022/06/09 14:15:44;;;;;;;;;;;21.70;99.90;;;;;;5113199;28;20010;-80
2022/06/09 14:18:16;;;;;;;;;;;21.70;99.90;;;;;;5113518;28;20022;-80
2022/06/09 14:20:41;;;;;;;;;;;21.70;99.90;;;;;;5113022;28;19919;-80
2022/06/09 14:23:10;;;;;;;;;;;21.80;99.90;;;;;;5113604;28;19907;-80
2022/06/09 14:25:36;;;;;;;;;;;21.80;99.90;;;;;;5113064;28;20372;-80
2022/06/09 14:28:06;;;;;;;;;;;21.80;99.90;;;;;;5113487;28;19912;-81
2022/06/09 14:30:31;;;;;;;;;;;21.70;99.90;;;;;;5113081;28;19908;-80
2022/06/09 14:32:57;;;;;;;;;;;21.60;99.90;;;;;;5113384;28;19908;-81
2022/06/09 14:35:22;;;;;;;;;;;21.60;99.90;;;;;;5112958;28;19907;-80
2022/06/09 14:37:49;;;;;;;;;;;21.70;99.90;;;;;;5113441;28;20250;-81
2022/06/09 14:40:29;;;;;;;;;;;21.70;99.90;;;;;;5113366;28;19961;-80
2022/06/09 14:42:55;;;;;;;;;;;21.60;99.90;;;;;;5113428;28;19915;-81
2022/06/09 14:45:21;;;;;;;;;;;21.60;99.90;;;;;;5112997;28;19911;-81
2022/06/09 14:47:46;;;;;;;;;;;21.50;99.90;;;;;;5112781;28;19912;-80